Time;durP1;ratioP1;P1;durP2;ratioP2;P2;SDS_P1;SDS_P2;PMS_P1;PMS_P2;Temp;Humidity;BMP_temperature;BMP_pressure;BME280_temperature;BME280_humidity;BME280_pressure;Samples;Min_cycle;Max_cycle;Signal;HPM_P1;HPM_P2
2023/06/17 14:33:00;;;;;;;2.30;2.10;;;;;;;27.40;37.17;99955.81;6171757;28;20715;31
2023/06/17 14:36:04;;;;;;;2.55;2.12;;;;;;;27.04;38.04;99952.75;5235245;34;33298;-86
2023/06/17 14:39:07;;;;;;;2.00;1.90;;;;;;;27.57;37.96;99942.25;5237934;34;34141;-85
2023/06/17 14:42:12;;;;;;;1.95;1.85;;;;;;;27.54;37.40;99953.13;5226337;34;33173;-85
2023/06/17 14:45:16;;;;;;;2.00;1.90;;;;;;;27.30;38.03;99945.75;5207872;34;290661;-85
2023/06/17 14:48:20;;;;;;;2.65;2.10;;;;;;;27.07;39.36;99932.78;5241760;34;34817;-85
2023/06/17 14:51:22;;;;;;;3.62;2.10;;;;;;;26.85;39.21;99933.37;5218267;34;34044;-85
2023/06/17 14:54:25;;;;;;;2.55;2.20;;;;;;;26.68;39.80;99929.19;5237626;34;33756;-85
2023/06/17 14:57:29;;;;;;;3.70;1.90;;;;;;;26.63;39.98;99920.13;5236906;34;34347;-85
2023/06/17 15:00:35;;;;;;;3.78;2.53;;;;;;;26.48;40.45;99929.41;5237738;34;33265;-85
2023/06/17 15:03:37;;;;;;;2.55;2.20;;;;;;;26.71;39.95;99925.00;5220799;34;33530;-85
2023/06/17 15:06:41;;;;;;;2.22;2.03;;;;;;;26.53;39.88;99920.25;5234108;34;33671;-85
2023/06/17 15:09:43;;;;;;;7.47;5.37;;;;;;;26.45;39.74;99928.06;5216327;34;33395;-85
2023/06/17 15:12:46;;;;;;;2.80;2.58;;;;;;;26.52;40.67;99924.97;5216181;34;32989;-85
2023/06/17 15:15:49;;;;;;;2.50;2.30;;;;;;;26.40;41.07;99930.88;5218856;34;33293;-85
2023/06/17 15:18:52;;;;;;;3.50;2.60;;;;;;;26.11;41.61;99930.09;5215856;34;34518;-85
2023/06/17 15:21:56;;;;;;;2.72;1.87;;;;;;;25.93;41.44;99926.16;5240711;34;33508;-86
2023/06/17 15:24:59;;;;;;;2.30;2.10;;;;;;;25.62;41.76;99925.56;5225052;34;33244;-86
2023/06/17 15:28:02;;;;;;;2.70;2.35;;;;;;;25.41;42.46;99934.00;5224835;34;33334;-85
2023/06/17 15:31:05;;;;;;;2.80;2.30;;;;;;;25.41;42.44;99936.75;5225405;34;32978;-85
2023/06/17 15:34:07;;;;;;;2.30;2.10;;;;;;;25.27;42.54;99946.78;5238675;33;33655;-86
2023/06/17 15:37:10;;;;;;;2.35;2.10;;;;;;;25.24;41.89;99931.66;5255264;33;33242;-85
2023/06/17 15:40:13;;;;;;;4.90;2.40;;;;;;;25.11;42.81;99937.78;5254076;33;33301;-85
2023/06/17 15:43:16;;;;;;;9.40;5.95;;;;;;;24.96;42.81;99940.63;5254870;33;33439;-85
2023/06/17 15:46:20;;;;;;;3.10;2.80;;;;;;;25.06;42.10;99937.78;5243638;33;33281;-85
2023/06/17 15:49:23;;;;;;;2.70;2.50;;;;;;;25.07;42.02;99926.50;5253682;33;33255;-85
2023/06/17 15:52:27;;;;;;;3.65;2.53;;;;;;;25.01;42.09;99933.16;5230715;33;33465;-85
2023/06/17 15:55:30;;;;;;;2.30;2.03;;;;;;;24.86;42.88;99944.22;5243775;33;32855;-85
2023/06/17 15:58:33;;;;;;;2.22;2.03;;;;;;;24.79;43.45;99947.31;5255960;33;33445;-85
2023/06/17 16:01:36;;;;;;;2.62;2.42;;;;;;;24.52;43.45;99946.88;5263175;33;34146;-86
2023/06/17 16:04:40;;;;;;;3.47;2.30;;;;;;;24.54;43.35;99940.00;5241877;33;33487;-85
2023/06/17 16:07:43;;;;;;;2.17;1.98;;;;;;;24.37;44.14;99947.72;5254072;33;34374;-85
2023/06/17 16:10:46;;;;;;;2.70;1.92;;;;;;;24.40;44.03;99950.75;5255564;33;32800;-85
2023/06/17 16:13:48;;;;;;;3.20;2.72;;;;;;;24.23;44.48;99944.72;5244375;33;33409;-85
2023/06/17 16:16:51;;;;;;;2.30;2.10;;;;;;;24.09;45.21;99938.97;5242575;33;33347;-85
2023/06/17 16:19:55;;;;;;;3.15;2.40;;;;;;;24.09;45.33;99946.41;5254708;33;32834;-89
2023/06/17 16:22:59;;;;;;;2.60;2.40;;;;;;;24.02;45.56;99946.72;5253359;33;33227;-90
2023/06/17 16:26:01;;;;;;;2.42;2.22;;;;;;;24.03;45.13;99951.09;5255101;33;33537;-89
2023/06/17 16:29:04;;;;;;;2.30;2.00;;;;;;;23.97;44.72;99958.53;5253506;33;34514;-87
2023/06/17 16:32:07;;;;;;;2.03;1.92;;;;;;;23.94;44.42;99956.31;5241613;33;32994;-86
2023/06/17 16:35:10;;;;;;;2.83;2.50;;;;;;;23.95;44.82;99965.41;5254429;33;33331;-86
2023/06/17 16:38:13;;;;;;;4.32;2.35;;;;;;;23.94;45.04;99972.00;5241661;33;34338;-85
2023/06/17 16:41:16;;;;;;;3.50;2.50;;;;;;;23.98;45.66;99968.44;5254532;33;32990;-86
